Pagina principală
METAR-TAF:

METAR-TAF

Aeroporturi :

Curaçao, Antilele Olandeze

Latitudine: 12-12N, longitudine: 068-58W, elevație: 9 m

Observații meteo curente

Raportul a fost făcut în urmă cu 53 de minute, la 04:00 UTC
Vânt 10 kt de la Est
Temperatură 29°C
Umiditate 89%
Presiune 1015 hPa
Vizibilitate de 10 km sau mai mult
Nori puțini la o înălțime de 1800 picior

METAR: TNCC 210400Z 10010KT 9999 FEW018 29/27 Q1015 NOSIG

Ora: 00:53 (04:53 UTC)

Prognoză

Raportul a fost făcut în urmă cu 5 ore și 38 de minute, la 23:15 UTC
Prognoză valabilă de la 21 ora 00 UTC la 21 ora 24 UTC
Vânt 13 kt de la Est
Vizibilitate de 10 km sau mai mult
Nori puțini la o înălțime de 1800 picior
Temporar
de la 21 ora 08 UTC la 21 ora 19 UTC
Nori împrăștiați la o înălțime de 1400 picior
Nori fragmentați la o înălțime de 1800 picior

TAF: TNCC 202315Z 2100/2124 08013KT 9999 FEW018 TEMPO 2108/2119 SCT014 BKN018

Observații și prognoze meteo pentru peste 4.000 de aeroporturi (rapoarte METAR și TAF).

Stațiile disponibile sunt reprezentate pe hartă prin puncte galbene și roșii.

Țineți indicatorul mouse-ului pe punctul dorit pentru a vedea denumirea stației.

Apoi, faceți clic pentru a vedea observațiile și prognozele meteorologice.

Pentru a schimba harta: Pentru mărire, faceți clic pe butoanele verzi cu cruce neagră; pentru micșorare, pe butonul verde cu o liniuță; pentru hărți învecinate, pe săgețile verzi.


METAR-TAF: